createdAt,value
2023-02-02T00:00:39.812Z,71.88
2023-02-02T00:03:41.610Z,72.04
2023-02-02T00:06:43.293Z,72.08
2023-02-02T00:09:44.986Z,72.32
2023-02-02T00:12:46.709Z,72.17
2023-02-02T00:15:48.426Z,72.01
2023-02-02T00:18:50.047Z,71.94
2023-02-02T00:21:52.526Z,71.81
2023-02-02T00:24:54.363Z,72.25
2023-02-02T00:27:56.531Z,72.24
2023-02-02T00:30:58.297Z,72.64
2023-02-02T00:34:00.339Z,72.80
2023-02-02T00:37:03.525Z,72.79
2023-02-02T00:40:06.063Z,72.76
2023-02-02T00:43:08.127Z,72.82
2023-02-02T00:46:14.960Z,72.69
2023-02-02T00:49:16.582Z,72.64
2023-02-02T00:52:18.237Z,72.61
2023-02-02T00:55:20.164Z,72.50
2023-02-02T00:58:21.820Z,72.41
2023-02-02T01:01:23.787Z,72.47
2023-02-02T01:04:25.628Z,72.57
2023-02-02T01:07:27.444Z,72.79
2023-02-02T01:10:31.167Z,73.17
2023-02-02T01:13:33.472Z,73.03
2023-02-02T01:16:36.259Z,72.86
2023-02-02T01:19:38.051Z,73.05
2023-02-02T01:22:39.870Z,72.79
2023-02-02T01:25:41.525Z,72.71
2023-02-02T01:28:43.314Z,72.86
2023-02-02T01:31:45.038Z,72.76
2023-02-02T01:34:46.681Z,72.92
2023-02-02T01:37:48.323Z,73.06
2023-02-02T01:40:57.193Z,73.26
2023-02-02T01:44:01.371Z,73.16
2023-02-02T01:47:03.064Z,73.48
2023-02-02T01:50:06.448Z,73.43
2023-02-02T01:53:09.501Z,73.43
2023-02-02T01:56:13.396Z,73.24
2023-02-02T01:59:15.451Z,73.28
2023-02-02T02:02:19.592Z,73.30
2023-02-02T02:05:46.391Z,73.45
2023-02-02T02:08:57.016Z,73.14
2023-02-02T02:11:58.945Z,73.36
2023-02-02T02:15:19.282Z,73.36
2023-02-02T02:18:31.257Z,73.43
2023-02-02T02:22:06.640Z,73.48
2023-02-02T02:25:54.528Z,73.54
2023-02-02T02:29:27.253Z,73.61
2023-02-02T02:32:41.076Z,73.37
2023-02-02T02:35:49.422Z,73.51
2023-02-02T02:39:02.645Z,73.49
2023-02-02T02:42:17.509Z,73.66
2023-02-02T02:45:19.883Z,73.56
2023-02-02T02:48:21.784Z,73.38
2023-02-02T02:51:40.229Z,73.47
2023-02-02T02:54:45.855Z,73.80
2023-02-02T02:58:07.207Z,73.73
2023-02-02T03:01:12.928Z,73.92
2023-02-02T03:04:32.437Z,73.66
2023-02-02T03:08:06.380Z,73.78
2023-02-02T03:11:10.433Z,73.56
2023-02-02T03:14:12.818Z,73.55
2023-02-02T03:17:14.521Z,73.46
2023-02-02T03:20:16.888Z,73.57
2023-02-02T03:23:18.945Z,73.57
2023-02-02T03:26:20.716Z,73.59
2023-02-02T03:29:23.700Z,73.56
2023-02-02T03:32:25.671Z,73.76
2023-02-02T03:35:27.341Z,73.85
2023-02-02T03:38:28.999Z,74.08
2023-02-02T03:41:30.639Z,74.02
2023-02-02T03:44:32.343Z,73.80
2023-02-02T03:47:33.958Z,73.69
2023-02-02T03:50:35.643Z,73.35
2023-02-02T03:53:38.315Z,73.45
2023-02-02T03:56:40.036Z,73.66
2023-02-02T03:59:41.669Z,73.80
2023-02-02T04:02:43.430Z,74.10
2023-02-02T04:05:45.024Z,74.06
2023-02-02T04:08:46.718Z,74.19
2023-02-02T04:11:48.358Z,74.22
2023-02-02T04:14:49.995Z,74.18
2023-02-02T04:17:51.631Z,74.17
2023-02-02T04:21:00.205Z,74.12
2023-02-02T04:24:01.878Z,73.80
2023-02-02T04:27:03.539Z,74.16
2023-02-02T04:30:06.044Z,74.03
2023-02-02T04:33:07.678Z,74.34
2023-02-02T04:36:10.544Z,74.45
2023-02-02T04:39:12.809Z,74.44
2023-02-02T04:42:14.409Z,74.26
2023-02-02T04:45:16.143Z,74.34
2023-02-02T04:48:17.851Z,74.04
2023-02-02T04:51:19.459Z,74.03
2023-02-02T04:54:21.334Z,74.06
2023-02-02T04:57:23.088Z,74.22
2023-02-02T05:00:24.919Z,74.37
2023-02-02T05:03:26.594Z,74.24
2023-02-02T05:06:28.219Z,74.06
2023-02-02T05:09:29.903Z,74.28
2023-02-02T05:12:31.619Z,74.47
2023-02-02T05:15:33.261Z,74.75
2023-02-02T05:18:35.009Z,74.92
2023-02-02T05:21:36.755Z,74.76
2023-02-02T05:24:38.383Z,74.62
2023-02-02T05:27:43.418Z,74.61
2023-02-02T05:30:45.085Z,74.47
2023-02-02T05:33:46.766Z,74.48
2023-02-02T05:36:49.176Z,74.30
2023-02-02T05:39:52.379Z,74.19
2023-02-02T05:42:53.977Z,74.16
2023-02-02T05:45:55.695Z,74.19
2023-02-02T05:48:59.309Z,74.29
2023-02-02T05:52:01.006Z,74.45
2023-02-02T05:55:03.318Z,74.45
2023-02-02T05:58:05.021Z,74.61
2023-02-02T06:01:06.726Z,74.51
2023-02-02T06:04:08.556Z,74.52
2023-02-02T06:07:10.424Z,74.31
2023-02-02T06:10:12.111Z,74.47
2023-02-02T06:13:13.737Z,74.23
2023-02-02T06:16:15.674Z,74.25
2023-02-02T06:19:17.456Z,74.19
2023-02-02T06:22:19.126Z,74.13
2023-02-02T06:25:20.898Z,74.18
2023-02-02T06:28:22.547Z,74.25
2023-02-02T06:31:24.470Z,74.23
2023-02-02T06:34:26.234Z,74.46
2023-02-02T06:37:30.572Z,74.37
2023-02-02T06:40:32.359Z,74.73
2023-02-02T06:43:34.011Z,75.05
2023-02-02T06:46:35.729Z,75.12
2023-02-02T06:49:37.468Z,75.11
2023-02-02T06:52:39.109Z,75.07
2023-02-02T06:55:40.734Z,75.01
2023-02-02T06:58:42.464Z,74.71
2023-02-02T07:01:44.204Z,74.98
2023-02-02T07:04:45.912Z,75.06
2023-02-02T07:07:47.597Z,74.78
2023-02-02T07:11:14.056Z,74.66
2023-02-02T07:14:11.990Z,74.50
2023-02-02T07:17:13.635Z,74.63
2023-02-02T07:20:15.319Z,74.80
2023-02-02T07:23:17.124Z,74.72
2023-02-02T07:26:19.417Z,74.57
2023-02-02T07:29:21.118Z,74.78
2023-02-02T07:32:22.729Z,74.61
2023-02-02T07:35:25.109Z,74.68
2023-02-02T07:38:26.963Z,74.72
2023-02-02T07:41:28.656Z,74.59
2023-02-02T07:44:30.415Z,74.62
2023-02-02T07:47:32.016Z,74.59
2023-02-02T07:50:33.698Z,74.79
2023-02-02T07:53:35.794Z,74.78
2023-02-02T07:56:38.252Z,75.00
2023-02-02T07:59:39.916Z,75.32
2023-02-02T08:02:41.580Z,75.32
2023-02-02T08:05:43.327Z,75.22
2023-02-02T08:08:44.984Z,75.31
2023-02-02T08:11:46.765Z,75.34
2023-02-02T08:14:48.467Z,75.08
2023-02-02T08:17:50.145Z,75.24
2023-02-02T08:20:52.782Z,75.30
2023-02-02T08:23:54.815Z,75.41
2023-02-02T08:26:56.667Z,75.51
2023-02-02T08:29:58.327Z,75.76
2023-02-02T08:32:59.936Z,75.76
2023-02-02T08:36:01.914Z,75.78
2023-02-02T08:39:05.456Z,75.87
2023-02-02T08:42:07.121Z,75.84
2023-02-02T08:46:03.094Z,75.77
2023-02-02T08:48:31.592Z,75.44
2023-02-02T08:51:33.455Z,75.54
2023-02-02T08:54:35.103Z,75.47
2023-02-02T08:57:36.942Z,75.58
2023-02-02T09:00:38.708Z,75.74
2023-02-02T09:03:40.651Z,75.82
2023-02-02T09:06:42.738Z,75.95
2023-02-02T09:09:44.389Z,76.08
2023-02-02T09:12:46.023Z,75.98
2023-02-02T09:15:47.719Z,75.95
2023-02-02T09:18:49.423Z,75.77
2023-02-02T09:21:51.246Z,75.53
2023-02-02T09:24:52.922Z,75.50
2023-02-02T09:27:54.625Z,75.29
2023-02-02T09:30:56.294Z,75.05
2023-02-02T09:34:02.182Z,75.05
2023-02-02T09:37:03.833Z,74.84
2023-02-02T09:40:06.094Z,74.87
2023-02-02T09:43:37.111Z,74.65
2023-02-02T09:46:57.224Z,74.53
2023-02-02T09:50:10.767Z,74.37
2023-02-02T09:53:27.732Z,74.14
2023-02-02T09:56:38.023Z,74.07
2023-02-02T09:59:41.943Z,73.93
2023-02-02T10:02:45.912Z,73.83
2023-02-02T10:06:00.237Z,73.76
2023-02-02T10:09:18.658Z,73.69
2023-02-02T10:12:43.699Z,73.80
2023-02-02T10:16:06.793Z,73.59
2023-02-02T10:19:12.671Z,73.37
2023-02-02T10:22:20.376Z,73.14
2023-02-02T10:25:23.284Z,72.99
2023-02-02T10:28:50.395Z,72.67
2023-02-02T10:32:14.549Z,72.43
2023-02-02T10:35:38.565Z,72.26
2023-02-02T10:38:50.555Z,71.98
2023-02-02T10:42:03.929Z,71.71
2023-02-02T10:45:18.901Z,71.50
2023-02-02T10:48:23.006Z,71.08
2023-02-02T10:51:28.017Z,70.88
2023-02-02T10:54:56.644Z,70.56
2023-02-02T10:58:19.802Z,70.22
2023-02-02T11:01:23.072Z,69.89
2023-02-02T11:04:43.966Z,69.66
2023-02-02T11:07:45.609Z,69.13
2023-02-02T11:10:50.365Z,69.05
2023-02-02T11:13:55.750Z,68.52
2023-02-02T11:17:03.807Z,68.20
2023-02-02T11:20:24.798Z,67.88
2023-02-02T11:23:28.581Z,67.49
2023-02-02T11:26:47.287Z,67.18
2023-02-02T11:29:56.873Z,66.84
2023-02-02T11:32:58.629Z,66.63
2023-02-02T11:36:19.411Z,66.34
2023-02-02T11:39:21.700Z,66.21
2023-02-02T11:42:24.342Z,65.97
2023-02-02T11:45:33.675Z,65.92
2023-02-02T11:48:39.418Z,65.68
2023-02-02T11:51:41.123Z,65.42
2023-02-02T11:54:46.692Z,65.19
2023-02-02T11:58:30.265Z,65.05
2023-02-02T12:01:39.797Z,64.88
2023-02-02T12:04:41.564Z,64.59
2023-02-02T12:07:44.562Z,64.32
2023-02-02T12:10:51.543Z,64.18
2023-02-02T12:14:20.624Z,63.99
2023-02-02T12:17:41.817Z,63.70
2023-02-02T12:20:55.861Z,63.52
2023-02-02T12:24:33.663Z,63.36
2023-02-02T12:28:02.553Z,63.16
2023-02-02T12:31:29.465Z,62.93
2023-02-02T12:34:56.519Z,62.70
2023-02-02T12:38:04.011Z,62.43
2023-02-02T12:41:27.173Z,62.22
2023-02-02T12:44:47.083Z,62.03
2023-02-02T12:48:05.189Z,61.74
2023-02-02T12:51:25.123Z,61.48
2023-02-02T12:54:44.061Z,61.16
2023-02-02T12:58:09.309Z,60.93
2023-02-02T13:01:38.975Z,60.45
2023-02-02T13:04:53.161Z,59.58
2023-02-02T13:08:08.914Z,58.57
2023-02-02T13:11:30.123Z,57.35
2023-02-02T13:14:38.525Z,56.37
2023-02-02T13:17:49.566Z,55.61
2023-02-02T13:21:07.765Z,54.61
2023-02-02T13:24:12.607Z,53.67
2023-02-02T13:27:19.065Z,52.95
2023-02-02T13:30:32.557Z,52.18
2023-02-02T13:33:36.213Z,51.76
2023-02-02T13:36:40.486Z,51.13
2023-02-02T13:40:22.516Z,50.58
2023-02-02T13:43:48.904Z,49.93
2023-02-02T13:47:01.673Z,49.48
2023-02-02T13:50:12.401Z,49.02
2023-02-02T13:53:39.749Z,48.52
2023-02-02T13:56:50.512Z,48.10
2023-02-02T14:00:01.242Z,47.88
2023-02-02T14:03:19.872Z,47.72
2023-02-02T14:06:24.150Z,47.52
2023-02-02T14:09:30.488Z,47.21
2023-02-02T14:12:34.318Z,46.88
2023-02-02T14:15:36.674Z,46.66
2023-02-02T14:18:50.963Z,46.64
2023-02-02T14:22:05.189Z,46.42
2023-02-02T14:25:29.822Z,46.31
2023-02-02T14:28:43.681Z,45.99
2023-02-02T14:31:53.916Z,45.97
2023-02-02T14:34:58.237Z,45.89
2023-02-02T14:38:10.032Z,46.13
2023-02-02T14:41:55.304Z,46.46
2023-02-02T14:45:12.286Z,46.91
2023-02-02T14:48:21.203Z,47.11
2023-02-02T14:51:26.691Z,47.32
2023-02-02T14:54:38.647Z,47.44
2023-02-02T14:57:40.619Z,47.38
2023-02-02T15:00:42.401Z,47.35
2023-02-02T15:03:45.518Z,47.39
2023-02-02T15:06:54.700Z,47.54
2023-02-02T15:09:56.424Z,47.61
2023-02-02T15:13:12.362Z,47.70
2023-02-02T15:16:31.045Z,47.86
2023-02-02T15:19:38.279Z,47.88
2023-02-02T15:23:00.918Z,47.97
2023-02-02T15:26:17.727Z,48.12
2023-02-02T15:29:32.480Z,48.22
2023-02-02T15:32:35.832Z,48.33
2023-02-02T15:35:38.338Z,48.39
2023-02-02T15:38:41.960Z,48.49
2023-02-02T15:41:44.461Z,48.58
2023-02-02T15:44:46.102Z,48.63
2023-02-02T15:47:48.016Z,48.80
2023-02-02T15:50:55.528Z,48.99
2023-02-02T15:53:57.149Z,49.08
2023-02-02T15:57:00.537Z,49.15
2023-02-02T16:00:26.959Z,49.34
2023-02-02T16:03:37.285Z,49.46
2023-02-02T16:06:38.809Z,49.75
2023-02-02T16:09:41.767Z,49.85
2023-02-02T16:12:43.371Z,49.89
2023-02-02T16:15:55.532Z,50.08
2023-02-02T16:19:09.442Z,50.30
2023-02-02T16:22:16.064Z,50.44
2023-02-02T16:25:19.713Z,50.54
2023-02-02T16:28:22.363Z,50.66
2023-02-02T16:31:24.892Z,50.99
2023-02-02T16:34:42.032Z,51.13
2023-02-02T16:37:43.640Z,51.41
2023-02-02T16:40:45.241Z,51.63
2023-02-02T16:43:46.815Z,51.97
2023-02-02T16:46:49.784Z,51.98
2023-02-02T16:49:55.314Z,52.25
2023-02-02T16:53:01.049Z,52.44
2023-02-02T16:56:04.588Z,52.52
2023-02-02T16:59:18.480Z,52.64
2023-02-02T17:02:26.049Z,52.76
2023-02-02T17:05:30.723Z,52.90
2023-02-02T17:08:36.869Z,53.26
2023-02-02T17:11:38.524Z,53.29
2023-02-02T17:14:54.545Z,53.44
2023-02-02T17:17:57.579Z,53.69
2023-02-02T17:21:04.333Z,53.96
2023-02-02T17:24:06.479Z,54.21
2023-02-02T17:27:15.833Z,54.48
2023-02-02T17:30:18.923Z,54.50
2023-02-02T17:33:20.562Z,54.80
2023-02-02T17:36:22.159Z,54.94
2023-02-02T17:39:23.790Z,55.08
2023-02-02T17:42:27.817Z,55.35
2023-02-02T17:45:33.946Z,55.53
2023-02-02T17:48:37.179Z,55.66
2023-02-02T17:51:43.007Z,55.66
2023-02-02T17:54:44.597Z,55.84
2023-02-02T17:57:47.300Z,55.99
2023-02-02T18:00:53.323Z,56.19
2023-02-02T18:03:55.517Z,56.28
2023-02-02T18:06:57.102Z,56.46
2023-02-02T18:09:58.759Z,56.52
2023-02-02T18:13:00.386Z,56.73
2023-02-02T18:16:02.105Z,56.91
2023-02-02T18:19:04.549Z,57.07
2023-02-02T18:22:06.612Z,57.15
2023-02-02T18:25:08.557Z,57.31
2023-02-02T18:28:11.055Z,57.55
2023-02-02T18:31:15.147Z,57.64
2023-02-02T18:34:16.971Z,57.74
2023-02-02T18:37:18.577Z,57.84
2023-02-02T18:40:20.231Z,58.04
2023-02-02T18:43:21.828Z,58.41
2023-02-02T18:46:23.640Z,58.70
2023-02-02T18:49:25.301Z,59.02
2023-02-02T18:52:27.073Z,59.20
2023-02-02T18:55:28.926Z,59.22
2023-02-02T18:58:33.065Z,59.23
2023-02-02T19:01:34.847Z,59.32
2023-02-02T19:04:36.433Z,59.34
2023-02-02T19:07:56.181Z,59.40
2023-02-02T19:11:00.551Z,59.44
2023-02-02T19:14:02.104Z,59.39
2023-02-02T19:17:24.483Z,59.52
2023-02-02T19:20:30.620Z,59.53
2023-02-02T19:23:33.186Z,59.61
2023-02-02T19:26:37.092Z,59.78
2023-02-02T19:29:38.681Z,59.81
2023-02-02T19:32:41.225Z,59.84
2023-02-02T19:35:49.485Z,59.83
2023-02-02T19:39:02.863Z,59.95
2023-02-02T19:42:10.194Z,60.07
2023-02-02T19:45:22.807Z,60.07
2023-02-02T19:48:26.975Z,60.15
2023-02-02T19:51:47.541Z,60.41
2023-02-02T19:54:49.683Z,60.65
2023-02-02T19:58:02.199Z,60.91
2023-02-02T20:01:15.846Z,61.19
2023-02-02T20:04:19.496Z,61.28
2023-02-02T20:07:21.184Z,61.37
2023-02-02T20:10:43.622Z,61.50
2023-02-02T20:13:48.377Z,61.71
2023-02-02T20:16:55.519Z,61.77
2023-02-02T20:19:57.247Z,61.89
2023-02-02T20:22:58.991Z,61.87
2023-02-02T20:26:03.423Z,61.87
2023-02-02T20:29:27.972Z,61.79
2023-02-02T20:32:39.248Z,61.73
2023-02-02T20:35:44.400Z,61.77
2023-02-02T20:38:46.101Z,61.75
2023-02-02T20:41:48.379Z,62.03
2023-02-02T20:44:50.787Z,62.36
2023-02-02T20:47:52.529Z,62.65
2023-02-02T20:50:54.331Z,62.85
2023-02-02T20:53:56.323Z,63.09
2023-02-02T20:56:58.055Z,63.29
2023-02-02T20:59:59.735Z,63.16
2023-02-02T21:03:01.296Z,63.23
2023-02-02T21:06:02.930Z,63.11
2023-02-02T21:09:05.853Z,63.28
2023-02-02T21:12:07.569Z,63.19
2023-02-02T21:15:10.036Z,63.24
2023-02-02T21:18:11.672Z,63.30
2023-02-02T21:21:15.905Z,63.37
2023-02-02T21:24:18.089Z,63.33
2023-02-02T21:27:20.045Z,63.50
2023-02-02T21:30:21.685Z,63.64
2023-02-02T21:33:23.257Z,63.85
2023-02-02T21:36:35.326Z,64.12
2023-02-02T21:39:37.382Z,64.11
2023-02-02T21:42:39.083Z,64.14
2023-02-02T21:45:42.545Z,64.17
2023-02-02T21:48:44.280Z,64.08
2023-02-02T21:51:46.069Z,64.00
2023-02-02T21:54:48.979Z,63.94
2023-02-02T21:57:50.622Z,63.90
2023-02-02T22:00:53.919Z,63.93
2023-02-02T22:03:55.545Z,64.07
2023-02-02T22:07:09.138Z,64.18
2023-02-02T22:10:39.767Z,64.55
2023-02-02T22:13:41.414Z,64.68
2023-02-02T22:16:50.652Z,64.63
2023-02-02T22:20:02.004Z,64.87
2023-02-02T22:23:03.821Z,64.79
2023-02-02T22:26:05.533Z,64.95
2023-02-02T22:29:16.360Z,64.95
2023-02-02T22:32:18.036Z,65.15
2023-02-02T22:35:19.682Z,65.09
2023-02-02T22:38:24.841Z,64.98
2023-02-02T22:41:26.458Z,65.13
2023-02-02T22:44:28.107Z,65.34
2023-02-02T22:47:29.687Z,65.47
2023-02-02T22:50:32.648Z,65.66
2023-02-02T22:53:34.274Z,65.67
2023-02-02T22:56:35.869Z,65.67
2023-02-02T22:59:37.405Z,65.66
2023-02-02T23:02:40.211Z,65.79
2023-02-02T23:05:41.918Z,65.82
2023-02-02T23:08:44.328Z,65.72
2023-02-02T23:11:48.083Z,65.76
2023-02-02T23:14:51.143Z,65.73
2023-02-02T23:17:53.033Z,65.82
2023-02-02T23:20:54.589Z,66.05
2023-02-02T23:23:56.348Z,66.25
2023-02-02T23:26:57.991Z,66.44
2023-02-02T23:29:59.637Z,66.66
2023-02-02T23:33:01.250Z,66.69
2023-02-02T23:36:02.903Z,66.62
2023-02-02T23:39:04.548Z,66.62
2023-02-02T23:42:06.339Z,66.56
2023-02-02T23:45:08.386Z,66.61
2023-02-02T23:48:10.084Z,66.48
2023-02-02T23:51:12.420Z,66.53
2023-02-02T23:54:14.740Z,66.54
2023-02-02T23:57:16.270Z,66.56
